Time;durP1;ratioP1;P1;durP2;ratioP2;P2;SDS_P1;SDS_P2;PMS_P1;PMS_P2;Temp;Humidity;BMP_temperature;BMP_pressure;BME280_temperature;BME280_humidity;BME280_pressure;Samples;Min_cycle;Max_cycle;Signal;HPM_P1;HPM_P2
2023/09/03 00:09:58;;;;;;;;;;;18.50;99.90;;;;;;6696562;88;20536;-76
2023/09/03 00:19:58;;;;;;;;;;;18.40;99.90;;;;;;6692624;88;20093;-76
2023/09/03 00:29:58;;;;;;;;;;;18.20;99.90;;;;;;6701104;88;20899;-74
2023/09/03 00:39:59;;;;;;;;;;;18.10;99.90;;;;;;6694164;88;20080;-75
2023/09/03 00:49:59;;;;;;;;;;;18.00;99.90;;;;;;6698646;88;20067;-74
2023/09/03 01:00:00;;;;;;;;;;;17.90;99.90;;;;;;6696129;88;20074;-75
2023/09/03 01:10:01;;;;;;;;;;;17.70;99.90;;;;;;6696170;88;20269;-75
2023/09/03 01:20:05;;;;;;;;;;;17.60;99.90;;;;;;6695012;88;20075;-75
2023/09/03 01:30:06;;;;;;;;;;;17.40;99.90;;;;;;6696528;88;20139;-75
2023/09/03 01:40:07;;;;;;;;;;;17.40;99.90;;;;;;6691431;88;20051;-74
2023/09/03 01:50:25;;;;;;;;;;;17.30;99.90;;;;;;6692433;88;20075;-75
2023/09/03 02:00:26;;;;;;;;;;;17.20;99.90;;;;;;6694274;88;20071;-75
2023/09/03 02:10:27;;;;;;;;;;;17.00;99.90;;;;;;6694597;88;20070;-75
2023/09/03 02:20:27;;;;;;;;;;;17.00;99.90;;;;;;6694609;88;20075;-74
2023/09/03 02:30:28;;;;;;;;;;;17.00;99.90;;;;;;6693076;88;20047;-75
2023/09/03 02:40:28;;;;;;;;;;;17.00;99.90;;;;;;6694700;88;20201;-75
2023/09/03 02:50:28;;;;;;;;;;;17.00;99.90;;;;;;6692065;88;20052;-75
2023/09/03 03:00:29;;;;;;;;;;;16.80;99.90;;;;;;6693240;88;20818;-74
2023/09/03 03:10:29;;;;;;;;;;;16.80;99.90;;;;;;6691263;88;20105;-75
2023/09/03 03:20:30;;;;;;;;;;;16.90;99.90;;;;;;6692498;88;20122;-74
2023/09/03 03:30:30;;;;;;;;;;;17.00;99.90;;;;;;6694504;88;20079;-75
2023/09/03 03:40:31;;;;;;;;;;;17.00;99.90;;;;;;6693644;88;20072;-74
2023/09/03 03:50:31;;;;;;;;;;;16.80;99.90;;;;;;6691571;88;20109;-76
2023/09/03 04:00:32;;;;;;;;;;;16.80;99.90;;;;;;6694268;88;20158;-75
2023/09/03 04:10:32;;;;;;;;;;;16.80;99.90;;;;;;6693526;88;20448;-76
2023/09/03 04:20:32;;;;;;;;;;;16.70;99.90;;;;;;6694407;88;20081;-75
2023/09/03 04:30:35;;;;;;;;;;;16.60;99.90;;;;;;6696267;88;20681;-75
2023/09/03 04:40:36;;;;;;;;;;;16.50;99.90;;;;;;6703338;88;20693;-76
2023/09/03 04:50:36;;;;;;;;;;;16.30;99.90;;;;;;6691468;88;20074;-76
2023/09/03 05:00:37;;;;;;;;;;;16.30;99.90;;;;;;6696935;88;20127;-76
2023/09/03 05:10:38;;;;;;;;;;;16.50;99.90;;;;;;6694496;88;20064;-75
2023/09/03 05:20:38;;;;;;;;;;;16.70;99.90;;;;;;6695815;88;20060;-76
2023/09/03 05:30:39;;;;;;;;;;;16.80;99.90;;;;;;6694944;88;20503;-76
2023/09/03 05:40:40;;;;;;;;;;;16.80;99.90;;;;;;6697299;88;20468;-76
2023/09/03 05:50:40;;;;;;;;;;;17.00;99.90;;;;;;6695255;88;20077;-77
2023/09/03 06:00:41;;;;;;;;;;;17.00;99.90;;;;;;6693454;88;20067;-76
2023/09/03 06:10:42;;;;;;;;;;;17.10;99.90;;;;;;6696242;88;20502;-76
2023/09/03 06:20:42;;;;;;;;;;;17.10;99.90;;;;;;6693470;88;20132;-76
2023/09/03 06:30:43;;;;;;;;;;;17.30;99.90;;;;;;6693021;88;20107;-76
2023/09/03 06:40:43;;;;;;;;;;;17.40;99.90;;;;;;6694409;88;20089;-76
2023/09/03 06:50:44;;;;;;;;;;;17.50;99.90;;;;;;6691706;88;20048;-76
2023/09/03 07:00:44;;;;;;;;;;;17.50;99.90;;;;;;6692331;88;20076;-77
2023/09/03 07:10:44;;;;;;;;;;;17.60;99.90;;;;;;6692635;88;20108;-75
2023/09/03 07:20:45;;;;;;;;;;;17.50;99.90;;;;;;6692430;88;20137;-78
2023/09/03 07:30:45;;;;;;;;;;;17.60;99.90;;;;;;6688917;88;20166;-76
2023/09/03 07:40:46;;;;;;;;;;;17.60;99.90;;;;;;6694167;88;20186;-77
2023/09/03 07:50:47;;;;;;;;;;;17.80;99.90;;;;;;6697464;88;20572;-77
2023/09/03 08:00:49;;;;;;;;;;;17.70;99.90;;;;;;6691021;88;20064;-76
2023/09/03 08:10:49;;;;;;;;;;;17.80;99.90;;;;;;6694023;88;20168;-76
2023/09/03 08:20:50;;;;;;;;;;;17.80;99.90;;;;;;6692881;88;20487;-75
2023/09/03 08:30:50;;;;;;;;;;;18.30;99.90;;;;;;6690012;88;20194;-76
2023/09/03 08:40:51;;;;;;;;;;;18.40;99.90;;;;;;6692714;88;20064;-76
2023/09/03 08:50:51;;;;;;;;;;;18.50;99.90;;;;;;6694261;88;20539;-76
2023/09/03 09:00:54;;;;;;;;;;;18.70;99.90;;;;;;6688871;88;20085;-75
2023/09/03 09:10:54;;;;;;;;;;;18.60;99.90;;;;;;6690801;88;20454;-75
2023/09/03 09:20:56;;;;;;;;;;;18.80;99.90;;;;;;6691844;88;20977;-76
2023/09/03 09:30:57;;;;;;;;;;;19.30;99.90;;;;;;6695239;88;20138;-76
2023/09/03 09:41:07;;;;;;;;;;;19.60;99.90;;;;;;6693120;88;20075;-77
2023/09/03 09:51:08;;;;;;;;;;;20.10;99.90;;;;;;6705810;77;20539;-75
2023/09/03 10:01:09;;;;;;;;;;;21.10;99.90;;;;;;6748550;87;20460;-78
2023/09/03 10:11:09;;;;;;;;;;;22.00;99.90;;;;;;6734713;88;20100;-78
2023/09/03 10:21:10;;;;;;;;;;;22.90;99.90;;;;;;6737961;88;20057;-77
2023/09/03 10:31:11;;;;;;;;;;;24.30;99.90;;;;;;6734044;88;20530;-77
2023/09/03 10:41:16;;;;;;;;;;;25.70;99.90;;;;;;6732455;88;20059;-77
2023/09/03 10:51:30;;;;;;;;;;;25.20;99.90;;;;;;6719193;88;20092;-78
2023/09/03 11:01:33;;;;;;;;;;;25.70;99.90;;;;;;6736596;88;20553;-77
2023/09/03 11:11:35;;;;;;;;;;;25.90;99.90;;;;;;6736565;88;20049;-77
2023/09/03 11:21:36;;;;;;;;;;;26.50;99.90;;;;;;6714346;88;20544;-76
2023/09/03 11:31:45;;;;;;;;;;;28.00;99.90;;;;;;6727649;88;20427;-75
2023/09/03 11:41:45;;;;;;;;;;;28.50;99.90;;;;;;6719626;88;22411;-76
2023/09/03 11:51:46;;;;;;;;;;;28.20;99.90;;;;;;6722827;88;20062;-76
2023/09/03 12:01:47;;;;;;;;;;;28.90;99.90;;;;;;6724965;88;20050;-78
2023/09/03 12:11:47;;;;;;;;;;;29.00;99.90;;;;;;6733896;88;20154;-78
2023/09/03 12:21:51;;;;;;;;;;;29.20;97.90;;;;;;6732757;88;20078;-76
2023/09/03 12:31:51;;;;;;;;;;;28.40;99.40;;;;;;6741667;88;20633;-76
2023/09/03 12:41:52;;;;;;;;;;;29.80;98.70;;;;;;6739449;88;20169;-76
2023/09/03 12:51:53;;;;;;;;;;;29.10;97.00;;;;;;6735568;88;20103;-77
2023/09/03 13:01:53;;;;;;;;;;;28.20;97.80;;;;;;6710240;85;83501;-77
2023/09/03 13:11:54;;;;;;;;;;;28.40;97.50;;;;;;6698807;88;20494;-77
2023/09/03 13:21:54;;;;;;;;;;;28.60;97.50;;;;;;6701904;88;20095;-77
2023/09/03 13:31:54;;;;;;;;;;;28.40;96.00;;;;;;6703502;88;20688;-77
2023/09/03 13:41:55;;;;;;;;;;;27.80;97.50;;;;;;6698320;88;20995;-78
2023/09/03 13:51:56;;;;;;;;;;;28.00;98.30;;;;;;6701855;88;20599;-77
2023/09/03 14:01:56;;;;;;;;;;;27.70;98.30;;;;;;6700965;88;20498;-78
2023/09/03 14:11:57;;;;;;;;;;;27.10;99.10;;;;;;6703326;88;20051;-77
2023/09/03 14:22:01;;;;;;;;;;;27.00;99.90;;;;;;6699139;88;20181;-79
2023/09/03 14:32:02;;;;;;;;;;;27.60;99.30;;;;;;6705523;88;20200;-78
2023/09/03 14:42:03;;;;;;;;;;;27.50;99.50;;;;;;6711377;88;20158;-78
2023/09/03 14:52:03;;;;;;;;;;;27.60;99.90;;;;;;6698796;88;20068;-75
2023/09/03 15:02:04;;;;;;;;;;;27.70;99.80;;;;;;6697176;88;20055;-74
2023/09/03 15:12:04;;;;;;;;;;;27.50;99.00;;;;;;6700049;88;20521;-76
2023/09/03 15:22:05;;;;;;;;;;;27.30;99.90;;;;;;6702238;88;20602;-77
2023/09/03 15:32:05;;;;;;;;;;;27.10;99.90;;;;;;6698552;88;20086;-76
2023/09/03 15:42:06;;;;;;;;;;;26.80;99.90;;;;;;6691236;88;20138;-76
2023/09/03 15:52:07;;;;;;;;;;;27.00;99.80;;;;;;6698377;77;20257;-75
2023/09/03 16:02:07;;;;;;;;;;;27.10;99.90;;;;;;6707202;88;20090;-75
2023/09/03 16:12:07;;;;;;;;;;;26.90;99.90;;;;;;6710304;88;20194;-77
2023/09/03 16:22:08;;;;;;;;;;;26.70;99.90;;;;;;6714333;88;20067;-76
2023/09/03 16:32:08;;;;;;;;;;;26.20;99.90;;;;;;6716744;88;20080;-76
2023/09/03 16:42:09;;;;;;;;;;;25.90;99.90;;;;;;6708558;88;20132;-76
2023/09/03 16:52:09;;;;;;;;;;;25.30;99.90;;;;;;6713932;88;20494;-76
2023/09/03 17:02:12;;;;;;;;;;;25.00;99.90;;;;;;6708933;88;20052;-76
2023/09/03 17:12:13;;;;;;;;;;;24.80;99.90;;;;;;6709600;88;20055;-76
2023/09/03 17:22:13;;;;;;;;;;;24.40;99.90;;;;;;6712856;88;20116;-75
2023/09/03 17:32:14;;;;;;;;;;;24.00;99.90;;;;;;6717525;88;20086;-76
2023/09/03 17:42:14;;;;;;;;;;;23.70;99.90;;;;;;6718185;88;20072;-76
2023/09/03 17:52:15;;;;;;;;;;;23.40;99.90;;;;;;6722510;88;20096;-76
2023/09/03 18:02:15;;;;;;;;;;;23.10;99.90;;;;;;6719760;88;20549;-76
2023/09/03 18:12:16;;;;;;;;;;;22.60;99.90;;;;;;6714634;88;20133;-77
2023/09/03 18:22:16;;;;;;;;;;;21.90;99.90;;;;;;6716706;88;20546;-76
2023/09/03 18:32:17;;;;;;;;;;;21.50;99.90;;;;;;6713813;88;20051;-77
2023/09/03 18:42:17;;;;;;;;;;;21.20;99.90;;;;;;6716239;88;20134;-76
2023/09/03 18:52:18;;;;;;;;;;;20.90;99.90;;;;;;6707653;88;20864;-76
2023/09/03 19:02:18;;;;;;;;;;;20.60;99.90;;;;;;6715386;88;20120;-77
2023/09/03 19:12:19;;;;;;;;;;;20.20;99.90;;;;;;6716281;88;20534;-75
2023/09/03 19:22:19;;;;;;;;;;;19.80;99.90;;;;;;6713312;88;20117;-77
2023/09/03 19:32:19;;;;;;;;;;;19.60;99.90;;;;;;6719809;88;20122;-78
2023/09/03 19:42:20;;;;;;;;;;;19.50;99.90;;;;;;6717375;88;20060;-79
2023/09/03 19:52:20;;;;;;;;;;;19.30;99.90;;;;;;6715640;88;20410;-77
2023/09/03 20:02:21;;;;;;;;;;;19.20;99.90;;;;;;6715747;88;20252;-78
2023/09/03 20:12:22;;;;;;;;;;;19.10;99.90;;;;;;6717247;88;20113;-79
2023/09/03 20:22:22;;;;;;;;;;;18.90;99.90;;;;;;6717639;88;20507;-77
2023/09/03 20:32:23;;;;;;;;;;;18.80;99.90;;;;;;6719786;88;20218;-77
2023/09/03 20:42:23;;;;;;;;;;;18.60;99.90;;;;;;6718255;88;20624;-78
2023/09/03 20:52:24;;;;;;;;;;;18.40;99.90;;;;;;6721850;88;20079;-78
2023/09/03 21:02:24;;;;;;;;;;;18.30;99.90;;;;;;6723489;88;20153;-77
2023/09/03 21:12:27;;;;;;;;;;;18.10;99.90;;;;;;6718318;88;20221;-76
2023/09/03 21:22:27;;;;;;;;;;;17.80;99.90;;;;;;6718790;88;20074;-78
2023/09/03 21:32:28;;;;;;;;;;;17.50;99.90;;;;;;6722296;88;20204;-76
2023/09/03 21:42:28;;;;;;;;;;;17.20;99.90;;;;;;6720491;88;20072;-76
2023/09/03 21:52:49;;;;;;;;;;;17.20;99.90;;;;;;6723583;87;20082;-76
2023/09/03 22:02:50;;;;;;;;;;;17.10;99.90;;;;;;6705075;88;20085;-80
2023/09/03 22:12:51;;;;;;;;;;;17.00;99.90;;;;;;6704606;88;20548;-80
2023/09/03 22:22:52;;;;;;;;;;;16.80;99.90;;;;;;6699325;88;20143;-79
2023/09/03 22:32:52;;;;;;;;;;;16.70;99.90;;;;;;6709619;88;20089;-79
2023/09/03 22:42:54;;;;;;;;;;;16.40;99.90;;;;;;6710486;88;20156;-78
2023/09/03 22:52:55;;;;;;;;;;;16.20;99.90;;;;;;6705948;88;20201;-78
2023/09/03 23:02:56;;;;;;;;;;;16.10;99.90;;;;;;6703860;88;20064;-79
2023/09/03 23:12:57;;;;;;;;;;;16.00;99.90;;;;;;6704711;88;20090;-79
2023/09/03 23:22:58;;;;;;;;;;;15.90;99.90;;;;;;6705342;88;20085;-78
2023/09/03 23:32:58;;;;;;;;;;;15.80;99.90;;;;;;6698815;88;20067;-78
2023/09/03 23:42:59;;;;;;;;;;;15.80;99.90;;;;;;6705654;88;20552;-78
2023/09/03 23:52:59;;;;;;;;;;;15.70;99.90;;;;;;6699444;88;20059;-78
